Time;durP1;ratioP1;P1;durP2;ratioP2;P2;SDS_P1;SDS_P2;PMS_P1;PMS_P2;Temp;Humidity;BMP_temperature;BMP_pressure;BME280_temperature;BME280_humidity;BME280_pressure;Samples;Min_cycle;Max_cycle;Signal;HPM_P1;HPM_P2
2022/01/20 00:03:32;;;;;;;594.78;279.20;;;-1.40;99.90;;;;;;5052027;28;20044;-75
2022/01/20 00:08:38;;;;;;;643.28;294.30;;;-1.40;99.90;;;;;;5052173;28;20391;-75
2022/01/20 00:27:49;;;;;;;636.95;312.45;;;-1.50;99.90;;;;;;5046756;28;20037;-75
2022/01/20 00:30:42;;;;;;;589.00;284.70;;;-1.50;99.90;;;;;;5049774;28;20029;-75
2022/01/20 00:38:15;;;;;;;510.15;232.68;;;-1.50;99.90;;;;;;5050086;28;20025;-75
2022/01/20 00:40:41;;;;;;;498.45;216.13;;;-1.50;99.90;;;;;;5055394;28;20017;-75
2022/01/20 00:43:07;;;;;;;519.55;220.48;;;-1.50;99.90;;;;;;5055645;28;20460;-75
2022/01/20 00:45:33;;;;;;;579.60;251.23;;;-1.50;99.90;;;;;;5055919;28;20036;-75
2022/01/20 00:47:59;;;;;;;573.08;252.93;;;-1.50;99.90;;;;;;5055118;28;20045;-75
2022/01/20 00:50:25;;;;;;;539.53;230.52;;;-1.50;99.90;;;;;;5055341;28;20442;-75
2022/01/20 00:52:51;;;;;;;519.58;222.50;;;-1.50;99.90;;;;;;5052647;28;20104;-75
2022/01/20 00:55:17;;;;;;;472.45;205.25;;;-1.50;99.90;;;;;;5054912;28;20392;-75
2022/01/20 00:57:43;;;;;;;453.27;192.48;;;-1.50;99.90;;;;;;5055343;28;20543;-75
2022/01/20 01:00:12;;;;;;;437.88;188.52;;;-1.50;99.90;;;;;;5055400;28;20095;-75
2022/01/20 01:02:38;;;;;;;421.38;175.45;;;-1.50;99.90;;;;;;5055130;28;20045;-75
2022/01/20 01:05:05;;;;;;;363.90;149.23;;;-1.50;99.90;;;;;;5054945;28;20040;-75
2022/01/20 01:09:57;;;;;;;347.27;143.60;;;-1.60;99.90;;;;;;5054946;28;20021;-75
2022/01/20 01:12:44;;;;;;;339.95;141.38;;;-1.60;99.90;;;;;;5055095;28;20051;-75
2022/01/20 01:15:17;;;;;;;354.13;140.18;;;-1.60;99.90;;;;;;5054735;28;20025;-75
2022/01/20 01:20:31;;;;;;;320.95;132.43;;;-1.60;99.90;;;;;;5054369;28;20027;-75
2022/01/20 01:22:57;;;;;;;326.58;137.85;;;-1.60;99.90;;;;;;5054748;28;20021;-75
2022/01/20 01:25:23;;;;;;;350.63;147.10;;;-1.70;99.90;;;;;;5054744;28;20124;-75
2022/01/20 01:27:49;;;;;;;368.27;158.63;;;-1.70;99.90;;;;;;5054819;28;20375;-75
2022/01/20 01:30:39;;;;;;;370.35;151.35;;;-1.70;99.90;;;;;;5054333;28;20025;-75
2022/01/20 01:33:07;;;;;;;371.33;146.20;;;-1.70;99.90;;;;;;5053919;28;20025;-75
2022/01/20 01:35:34;;;;;;;356.13;147.45;;;-1.70;99.90;;;;;;5051905;28;20407;-75
2022/01/20 01:40:35;;;;;;;353.20;149.00;;;-1.80;99.90;;;;;;5052082;28;20045;-75
2022/01/20 01:43:06;;;;;;;357.75;146.80;;;-1.80;99.90;;;;;;5054456;28;20487;-75
2022/01/20 01:45:35;;;;;;;367.70;151.07;;;-1.80;99.90;;;;;;5051625;28;20029;-75
2022/01/20 01:48:03;;;;;;;350.42;146.85;;;-1.80;99.90;;;;;;5054069;28;20281;-75
2022/01/20 01:50:29;;;;;;;372.20;150.23;;;-1.80;99.90;;;;;;5053463;28;20366;-75
2022/01/20 01:52:57;;;;;;;351.02;142.88;;;-1.90;99.90;;;;;;5054214;28;20064;-75
2022/01/20 01:55:23;;;;;;;365.98;147.23;;;-1.90;99.90;;;;;;5052976;28;20453;-75
2022/01/20 01:57:49;;;;;;;357.60;152.20;;;-1.90;99.90;;;;;;5053855;28;20377;-75
2022/01/20 02:00:17;;;;;;;351.58;146.45;;;-1.90;99.90;;;;;;5053993;28;20083;-75
2022/01/20 02:02:43;;;;;;;398.83;174.85;;;-1.90;99.90;;;;;;5053945;28;20021;-75
2022/01/20 02:05:13;;;;;;;408.77;177.20;;;-2.00;99.90;;;;;;5054282;28;20029;-75
2022/01/20 02:18:49;;;;;;;385.00;164.25;;;-2.10;99.90;;;;;;5052068;28;20031;-75
2022/01/20 02:21:15;;;;;;;334.60;138.85;;;-2.10;99.90;;;;;;5051357;28;20394;-75
2022/01/20 02:23:40;;;;;;;300.00;131.35;;;-2.20;99.90;;;;;;5053803;28;20085;-75
2022/01/20 02:26:06;;;;;;;272.02;115.57;;;-2.10;99.90;;;;;;5053593;28;20056;-75
2022/01/20 02:28:32;;;;;;;283.65;118.93;;;-2.20;99.90;;;;;;5051133;28;20028;-75
2022/01/20 02:30:59;;;;;;;293.77;120.55;;;-2.20;99.90;;;;;;5053444;28;20074;-75
2022/01/20 02:33:27;;;;;;;380.48;157.65;;;-2.20;99.90;;;;;;5053915;28;20021;-75
2022/01/20 02:35:57;;;;;;;363.20;153.35;;;-2.20;99.90;;;;;;5054799;28;20029;-75
2022/01/20 02:46:24;;;;;;;328.88;139.73;;;-2.30;99.90;;;;;;5054709;28;20035;-75
2022/01/20 02:48:50;;;;;;;325.10;136.45;;;-2.30;99.90;;;;;;5054679;28;20388;-75
2022/01/20 02:51:16;;;;;;;318.00;134.45;;;-2.30;99.90;;;;;;5054641;28;20468;-75
2022/01/20 02:53:42;;;;;;;300.30;130.88;;;-2.30;99.90;;;;;;5054430;28;20021;-75
2022/01/20 02:56:07;;;;;;;301.08;129.20;;;-2.30;99.90;;;;;;5054630;28;20040;-75
2022/01/20 02:58:33;;;;;;;299.60;124.55;;;-2.30;99.90;;;;;;5054494;28;20025;-75
2022/01/20 03:01:00;;;;;;;302.58;124.57;;;-2.30;99.90;;;;;;5053184;28;20132;-75
2022/01/20 03:03:26;;;;;;;298.15;124.43;;;-2.30;99.90;;;;;;5054562;28;20057;-75
2022/01/20 03:05:52;;;;;;;302.00;126.82;;;-2.30;99.90;;;;;;5054411;28;20033;-75
2022/01/20 03:08:18;;;;;;;307.33;130.82;;;-2.30;99.90;;;;;;5054245;28;20029;-75
2022/01/20 03:10:45;;;;;;;293.83;123.03;;;-2.30;99.90;;;;;;5054274;28;20453;-75
2022/01/20 03:13:11;;;;;;;260.92;106.28;;;-2.40;99.90;;;;;;5054343;28;20021;-75
2022/01/20 03:15:37;;;;;;;239.65;102.28;;;-2.40;99.90;;;;;;5053612;28;20056;-74
2022/01/20 03:18:04;;;;;;;236.23;101.05;;;-2.40;99.90;;;;;;5053802;28;20025;-75
2022/01/20 03:20:32;;;;;;;230.60;96.22;;;-2.40;99.90;;;;;;5054309;28;20029;-75
2022/01/20 03:22:58;;;;;;;206.20;85.68;;;-2.40;99.90;;;;;;5054088;28;20017;-75
2022/01/20 03:25:24;;;;;;;241.60;97.65;;;-2.40;99.90;;;;;;5053968;28;20028;-75
2022/01/20 03:27:50;;;;;;;269.65;103.60;;;-2.40;99.90;;;;;;5054157;28;20032;-76
2022/01/20 03:30:16;;;;;;;256.38;104.93;;;-2.40;99.90;;;;;;5053854;28;20025;-75
2022/01/20 03:32:42;;;;;;;271.25;113.72;;;-2.50;99.90;;;;;;5053916;28;20033;-75
2022/01/20 03:35:08;;;;;;;254.75;108.40;;;-2.50;99.90;;;;;;5053642;28;20467;-75
2022/01/20 03:37:35;;;;;;;284.92;120.00;;;-2.50;99.90;;;;;;5053669;28;20398;-74
2022/01/20 03:40:01;;;;;;;269.20;111.97;;;-2.50;99.90;;;;;;5054066;28;20035;-75
2022/01/20 03:42:27;;;;;;;316.70;132.55;;;-2.50;99.90;;;;;;5053656;28;20096;-75
2022/01/20 03:44:53;;;;;;;295.10;122.97;;;-2.50;99.90;;;;;;5053786;28;20506;-75
2022/01/20 03:47:23;;;;;;;262.73;113.70;;;-2.50;99.90;;;;;;5053753;28;20017;-75
2022/01/20 03:50:05;;;;;;;257.42;106.00;;;-2.60;99.90;;;;;;5053641;28;20044;-75
2022/01/20 03:52:32;;;;;;;242.20;98.18;;;-2.50;99.90;;;;;;5053343;28;20033;-75
2022/01/20 03:54:58;;;;;;;240.65;100.72;;;-2.50;99.90;;;;;;5053648;28;20456;-75
2022/01/20 03:57:24;;;;;;;239.93;101.45;;;-2.60;99.90;;;;;;5053251;28;20032;-75
2022/01/20 03:59:49;;;;;;;243.82;99.07;;;-2.60;99.90;;;;;;5053360;28;20029;-75
2022/01/20 04:02:15;;;;;;;220.48;88.78;;;-2.60;99.90;;;;;;5053712;28;20029;-75
2022/01/20 04:04:41;;;;;;;197.10;82.38;;;-2.70;99.90;;;;;;5053466;28;20029;-75
2022/01/20 04:07:07;;;;;;;194.00;74.43;;;-2.70;99.90;;;;;;5053593;28;20029;-75
2022/01/20 04:09:33;;;;;;;182.07;72.63;;;-2.70;99.90;;;;;;5053603;28;20033;-75
2022/01/20 04:11:59;;;;;;;209.48;80.22;;;-2.70;99.90;;;;;;5053143;28;20028;-75
2022/01/20 04:14:27;;;;;;;192.00;76.97;;;-2.70;99.90;;;;;;5057528;28;20036;-75
2022/01/20 04:19:24;;;;;;;192.90;75.40;;;-2.70;99.90;;;;;;5057377;28;20403;-75
2022/01/20 04:21:50;;;;;;;204.73;79.53;;;-2.70;99.90;;;;;;5057461;28;20029;-75
2022/01/20 04:24:16;;;;;;;210.80;84.47;;;-2.70;99.90;;;;;;5057010;28;20040;-75
2022/01/20 04:26:44;;;;;;;223.10;87.72;;;-2.70;99.90;;;;;;5057178;28;20059;-76
2022/01/20 04:29:11;;;;;;;228.55;88.72;;;-2.70;99.90;;;;;;5057399;28;20029;-75
2022/01/20 04:31:38;;;;;;;223.45;89.47;;;-2.70;99.90;;;;;;5056863;28;20441;-75
2022/01/20 04:34:05;;;;;;;209.25;86.60;;;-2.70;99.90;;;;;;5057300;28;20036;-75
2022/01/20 04:36:35;;;;;;;229.82;92.07;;;-2.70;99.90;;;;;;5057187;28;20106;-76
2022/01/20 04:39:03;;;;;;;239.00;91.68;;;-2.70;99.90;;;;;;5057188;28;20036;-75
2022/01/20 04:41:30;;;;;;;212.45;85.47;;;-2.70;99.90;;;;;;5056854;28;20028;-75
2022/01/20 04:43:56;;;;;;;206.15;82.78;;;-2.70;99.90;;;;;;5056903;28;20021;-75
2022/01/20 04:46:32;;;;;;;206.05;81.03;;;-2.60;99.90;;;;;;5057188;28;20029;-75
2022/01/20 04:59:28;;;;;;;209.00;87.50;;;-2.90;99.90;;;;;;5056698;28;20103;-75
2022/01/20 05:01:54;;;;;;;242.82;109.55;;;-2.90;99.90;;;;;;5056352;28;20040;-75
2022/01/20 05:04:21;;;;;;;222.15;99.05;;;-3.00;99.90;;;;;;5056700;28;20033;-75
2022/01/20 05:06:48;;;;;;;194.95;86.03;;;-2.90;99.90;;;;;;5056376;28;20029;-75
2022/01/20 05:09:19;;;;;;;126.00;55.28;;;-2.90;99.90;;;;;;5056794;28;20028;-75
2022/01/20 05:11:57;;;;;;;127.18;55.08;;;-2.90;99.90;;;;;;5056225;28;20463;-76
2022/01/20 05:14:23;;;;;;;160.50;71.97;;;-2.90;99.90;;;;;;5056421;28;20045;-75
2022/01/20 05:16:51;;;;;;;168.15;75.43;;;-2.90;99.90;;;;;;5056025;28;20029;-77
2022/01/20 05:19:16;;;;;;;149.75;67.97;;;-2.90;99.90;;;;;;5056154;28;20025;-76
2022/01/20 05:21:42;;;;;;;128.45;56.25;;;-2.90;99.90;;;;;;5056049;28;20051;-75
2022/01/20 05:24:08;;;;;;;128.45;55.65;;;-2.90;99.90;;;;;;5054988;28;20029;-75
2022/01/20 05:26:34;;;;;;;131.50;55.63;;;-2.90;99.90;;;;;;5056638;28;20021;-76
2022/01/20 05:28:59;;;;;;;155.95;69.05;;;-2.90;99.90;;;;;;5056272;28;20033;-76
2022/01/20 05:31:25;;;;;;;172.93;72.20;;;-3.00;99.90;;;;;;5056268;28;20028;-76
2022/01/20 05:33:51;;;;;;;187.52;75.18;;;-3.00;99.90;;;;;;5055965;28;20037;-76
2022/01/20 05:36:17;;;;;;;273.58;123.32;;;-3.10;99.90;;;;;;5056053;28;20025;-76
2022/01/20 05:38:43;;;;;;;292.08;126.82;;;-3.00;99.90;;;;;;5056085;28;20032;-76
2022/01/20 05:41:08;;;;;;;284.23;127.40;;;-3.00;99.90;;;;;;5055931;28;20040;-76
2022/01/20 05:43:34;;;;;;;239.10;103.22;;;-3.00;99.90;;;;;;5056368;28;20025;-76
2022/01/20 05:46:02;;;;;;;189.93;88.68;;;-3.00;99.90;;;;;;5056107;28;20036;-76
2022/01/20 05:48:33;;;;;;;178.57;82.97;;;-3.00;99.90;;;;;;5055201;28;20500;-76
2022/01/20 05:51:00;;;;;;;185.13;81.73;;;-3.00;99.90;;;;;;5054221;28;20029;-76
2022/01/20 05:53:26;;;;;;;270.17;119.20;;;-3.00;99.90;;;;;;5054942;28;20345;-76
2022/01/20 05:55:52;;;;;;;347.05;155.02;;;-3.00;99.90;;;;;;5055674;28;20116;-76
2022/01/20 05:58:19;;;;;;;371.08;162.40;;;-3.00;99.90;;;;;;5054862;28;20040;-76
2022/01/20 06:00:46;;;;;;;354.70;150.70;;;-3.00;99.90;;;;;;5055284;28;20033;-76
2022/01/20 06:05:57;;;;;;;363.90;154.70;;;-2.90;99.90;;;;;;5055402;28;20082;-76
2022/01/20 06:08:23;;;;;;;319.40;135.52;;;-2.90;99.90;;;;;;5055609;28;20064;-76
2022/01/20 06:10:49;;;;;;;260.98;108.68;;;-2.90;99.90;;;;;;5055340;28;20055;-76
2022/01/20 06:13:15;;;;;;;217.52;91.38;;;-2.90;99.90;;;;;;5055449;28;20033;-76
2022/01/20 06:15:41;;;;;;;211.60;91.07;;;-2.90;99.90;;;;;;5055479;28;20037;-74
2022/01/20 06:18:08;;;;;;;249.00;107.65;;;-2.80;99.90;;;;;;5055239;28;20078;-74
2022/01/20 06:20:35;;;;;;;261.80;107.97;;;-2.80;99.90;;;;;;5055629;28;20067;-74
2022/01/20 06:23:01;;;;;;;271.92;111.82;;;-2.80;99.90;;;;;;5054263;28;20013;-75
2022/01/20 06:25:27;;;;;;;298.83;115.65;;;-2.70;99.90;;;;;;5054573;28;20029;-75
2022/01/20 06:27:53;;;;;;;257.00;108.35;;;-2.70;99.90;;;;;;5054833;28;20158;-75
2022/01/20 06:30:19;;;;;;;252.23;98.90;;;-2.70;99.90;;;;;;5054601;28;20029;-75
2022/01/20 06:32:45;;;;;;;257.35;102.63;;;-2.70;99.90;;;;;;5054904;28;20025;-75
2022/01/20 06:35:11;;;;;;;214.95;85.05;;;-2.60;99.90;;;;;;5054601;28;20029;-75
2022/01/20 06:37:37;;;;;;;211.52;84.88;;;-2.50;99.90;;;;;;5054416;28;20021;-75
2022/01/20 06:40:06;;;;;;;218.30;88.10;;;-2.50;99.90;;;;;;5055072;28;20028;-75
2022/01/20 06:42:32;;;;;;;201.07;80.50;;;-2.50;99.90;;;;;;5054798;28;20025;-75
2022/01/20 06:44:57;;;;;;;185.85;75.22;;;-2.30;99.90;;;;;;5054879;28;20029;-75
2022/01/20 06:47:23;;;;;;;160.15;65.28;;;-2.30;99.90;;;;;;5054730;28;20040;-75
2022/01/20 06:49:49;;;;;;;204.13;77.47;;;-2.20;99.90;;;;;;5054441;28;20028;-75
2022/01/20 06:52:15;;;;;;;204.60;80.50;;;-2.10;99.90;;;;;;5054299;28;20028;-75
2022/01/20 06:54:41;;;;;;;207.98;80.13;;;-2.00;99.90;;;;;;5054519;28;20057;-75
2022/01/20 06:57:07;;;;;;;267.83;97.10;;;-1.90;99.90;;;;;;5054741;28;20074;-75
2022/01/20 06:59:33;;;;;;;158.27;58.28;;;-1.70;99.90;;;;;;5054728;28;20212;-75
2022/01/20 07:01:58;;;;;;;303.70;112.75;;;-1.40;99.90;;;;;;5054605;28;20033;-75
2022/01/20 07:04:27;;;;;;;334.10;129.40;;;-0.70;99.90;;;;;;5054742;28;20109;-75
2022/01/20 07:06:52;;;;;;;263.67;107.78;;;0.00;99.90;;;;;;5054237;28;20033;-76
2022/01/20 07:09:18;;;;;;;214.40;91.28;;;0.60;99.90;;;;;;5054020;28;20482;-75
2022/01/20 07:11:44;;;;;;;256.17;109.47;;;0.90;99.90;;;;;;5054129;28;20067;-75
2022/01/20 07:14:11;;;;;;;393.73;176.13;;;1.30;99.90;;;;;;5054083;28;20529;-75
2022/01/20 07:16:36;;;;;;;367.38;161.70;;;1.50;99.90;;;;;;5054221;28;20035;-75
2022/01/20 07:19:03;;;;;;;425.67;177.43;;;1.60;99.90;;;;;;5053991;28;20024;-75
2022/01/20 07:21:28;;;;;;;324.73;134.35;;;1.60;99.90;;;;;;5052738;28;20419;-75
2022/01/20 07:23:54;;;;;;;263.60;111.72;;;1.80;99.90;;;;;;5054052;28;20460;-75
2022/01/20 07:26:21;;;;;;;223.85;93.15;;;2.00;99.90;;;;;;5053989;28;20035;-74
2022/01/20 07:28:47;;;;;;;165.27;68.43;;;1.70;99.90;;;;;;5053823;28;20083;-75
2022/01/20 07:31:14;;;;;;;171.45;72.10;;;1.90;99.90;;;;;;5053694;28;20033;-75
2022/01/20 07:33:40;;;;;;;159.63;68.40;;;2.20;99.90;;;;;;5053807;28;20086;-73
2022/01/20 07:36:05;;;;;;;202.10;84.82;;;2.50;99.90;;;;;;5053633;28;20462;-73
2022/01/20 07:38:31;;;;;;;276.63;126.80;;;2.60;99.90;;;;;;5053883;28;20427;-73
2022/01/20 07:40:58;;;;;;;269.95;122.75;;;2.70;99.90;;;;;;5053664;28;20021;-73
2022/01/20 07:43:24;;;;;;;278.45;127.32;;;2.80;99.90;;;;;;5054197;28;20063;-73
2022/01/20 07:45:50;;;;;;;286.17;129.70;;;2.80;99.90;;;;;;5053778;28;20029;-75
2022/01/20 07:48:15;;;;;;;395.17;181.63;;;2.90;99.90;;;;;;5052920;28;20049;-75
2022/01/20 07:50:41;;;;;;;423.20;197.82;;;3.00;99.90;;;;;;5053449;28;20029;-76
2022/01/20 07:53:07;;;;;;;428.70;202.35;;;3.10;99.90;;;;;;5054090;28;20036;-75
2022/01/20 07:55:33;;;;;;;419.90;197.43;;;2.90;99.90;;;;;;5053439;28;20041;-75
2022/01/20 07:57:59;;;;;;;431.35;197.38;;;2.50;99.90;;;;;;5053789;28;20544;-76
2022/01/20 08:00:25;;;;;;;421.90;191.05;;;2.20;99.90;;;;;;5053537;28;20047;-76
2022/01/20 08:02:51;;;;;;;440.38;202.57;;;2.00;99.90;;;;;;5053154;28;20028;-76
2022/01/20 08:05:17;;;;;;;512.40;233.32;;;1.80;99.90;;;;;;5053221;28;20036;-76
2022/01/20 08:07:43;;;;;;;507.52;226.30;;;1.70;99.90;;;;;;5052865;28;20533;-76
2022/01/20 08:10:11;;;;;;;530.63;246.30;;;1.60;99.90;;;;;;5053254;28;20061;-76
2022/01/20 08:12:37;;;;;;;561.28;256.60;;;1.50;99.90;;;;;;5053013;28;20102;-76
2022/01/20 08:15:04;;;;;;;571.13;269.63;;;2.00;99.90;;;;;;5053231;28;20066;-76
2022/01/20 08:17:30;;;;;;;579.65;273.50;;;2.70;99.90;;;;;;5052977;28;20107;-76
2022/01/20 08:19:58;;;;;;;560.92;269.88;;;3.00;99.90;;;;;;5053009;28;20064;-76
2022/01/20 08:22:24;;;;;;;555.78;262.27;;;3.40;99.90;;;;;;5051296;28;20399;-75
2022/01/20 08:24:52;;;;;;;513.28;242.98;;;3.70;99.90;;;;;;5052678;28;20030;-75
2022/01/20 08:27:19;;;;;;;406.92;192.55;;;4.10;99.90;;;;;;5052276;28;20036;-75
2022/01/20 08:29:45;;;;;;;416.98;201.38;;;4.30;99.90;;;;;;5052423;28;20028;-75
2022/01/20 08:32:11;;;;;;;368.35;167.55;;;4.50;99.90;;;;;;5052884;28;20444;-75
2022/01/20 08:34:37;;;;;;;360.92;169.77;;;4.10;99.90;;;;;;5052875;28;20037;-75
2022/01/20 08:37:03;;;;;;;368.83;169.65;;;4.20;99.90;;;;;;5052861;28;20025;-75
2022/01/20 08:41:59;;;;;;;342.02;155.60;;;4.50;99.90;;;;;;5053142;28;20029;-75
2022/01/20 08:44:26;;;;;;;352.23;157.32;;;4.80;99.90;;;;;;5053151;28;20540;-75
2022/01/20 08:46:52;;;;;;;443.60;213.98;;;5.30;99.90;;;;;;5052839;28;20055;-75
2022/01/20 08:49:19;;;;;;;441.88;223.82;;;5.40;99.90;;;;;;5052924;28;20052;-76
2022/01/20 08:51:45;;;;;;;409.00;194.00;;;5.40;99.90;;;;;;5052498;28;20048;-76
2022/01/20 08:54:13;;;;;;;389.27;191.82;;;5.40;99.90;;;;;;5052600;28;20025;-76
2022/01/20 08:56:42;;;;;;;472.30;228.18;;;5.50;99.90;;;;;;5052975;28;20029;-76
2022/01/20 08:59:09;;;;;;;432.08;205.57;;;5.40;99.90;;;;;;5052909;28;20025;-76
2022/01/20 09:01:38;;;;;;;366.65;177.75;;;5.30;99.90;;;;;;5056605;28;20032;-76
2022/01/20 09:04:05;;;;;;;454.00;230.18;;;5.30;99.90;;;;;;5056390;28;20033;-76
2022/01/20 09:06:31;;;;;;;737.53;371.52;;;5.20;99.90;;;;;;5056218;28;20044;-75
2022/01/20 09:08:57;;;;;;;1539.10;735.45;;;5.10;99.90;;;;;;5056782;28;20032;-76
2022/01/20 09:11:24;;;;;;;1761.93;801.55;;;5.10;99.90;;;;;;5056258;28;20025;-75
2022/01/20 09:16:37;;;;;;;1029.95;546.25;;;5.10;99.90;;;;;;5056044;28;20162;-75
2022/01/20 09:19:03;;;;;;;656.95;339.75;;;5.20;99.90;;;;;;5055901;28;20044;-76
2022/01/20 09:21:29;;;;;;;529.05;267.92;;;5.30;99.90;;;;;;5056092;28;20041;-75
2022/01/20 09:23:57;;;;;;;579.28;297.55;;;5.30;99.90;;;;;;5056254;28;20064;-76
2022/01/20 09:26:24;;;;;;;537.72;273.73;;;5.40;99.90;;;;;;5056010;28;20480;-75
2022/01/20 09:28:50;;;;;;;440.65;226.52;;;5.40;99.90;;;;;;5055883;28;20033;-75
2022/01/20 09:31:21;;;;;;;441.95;228.32;;;5.40;99.90;;;;;;5056440;28;20025;-75
2022/01/20 09:33:47;;;;;;;407.00;201.73;;;5.50;99.90;;;;;;5056166;28;20064;-75
2022/01/20 09:36:13;;;;;;;589.20;284.55;;;5.60;99.90;;;;;;5055830;28;20514;-75
2022/01/20 09:38:39;;;;;;;714.90;338.27;;;5.70;99.90;;;;;;5055846;28;20029;-75
2022/01/20 09:41:06;;;;;;;681.97;329.10;;;5.80;99.90;;;;;;5055155;28;20107;-74
2022/01/20 09:43:33;;;;;;;611.47;291.02;;;5.90;99.90;;;;;;5054964;28;20021;-75
2022/01/20 09:45:59;;;;;;;554.42;270.83;;;6.00;99.90;;;;;;5055535;28;20112;-75
2022/01/20 09:48:27;;;;;;;522.33;251.82;;;6.20;99.90;;;;;;5055160;28;20087;-75
2022/01/20 09:50:53;;;;;;;441.45;206.45;;;6.20;99.90;;;;;;5055148;28;20025;-74
2022/01/20 09:53:19;;;;;;;456.95;222.50;;;6.30;99.90;;;;;;5055413;28;20461;-74
2022/01/20 09:55:46;;;;;;;407.38;191.77;;;6.40;99.90;;;;;;5055749;28;20058;-74
2022/01/20 09:58:13;;;;;;;401.45;191.05;;;6.50;99.90;;;;;;5055458;28;20021;-74
2022/01/20 10:00:41;;;;;;;346.80;165.82;;;6.60;99.90;;;;;;5055294;28;20025;-74
2022/01/20 10:03:11;;;;;;;275.75;126.30;;;6.80;99.90;;;;;;5055763;28;20021;-74
2022/01/20 10:05:43;;;;;;;278.25;134.70;;;6.90;99.90;;;;;;5055529;28;20366;-74
2022/01/20 10:08:16;;;;;;;603.33;286.00;;;7.00;99.90;;;;;;5055523;28;20025;-74
2022/01/20 10:10:49;;;;;;;654.42;301.70;;;7.00;99.90;;;;;;5055131;28;20086;-74
2022/01/20 10:13:18;;;;;;;658.30;329.70;;;7.10;99.90;;;;;;5055994;28;20460;-74
2022/01/20 10:16:00;;;;;;;540.83;273.88;;;7.40;99.90;;;;;;5055221;28;20068;-74
2022/01/20 10:18:27;;;;;;;532.40;281.45;;;7.60;99.90;;;;;;5055719;28;20522;-74
2022/01/20 10:21:02;;;;;;;465.27;241.02;;;8.20;99.90;;;;;;5055129;28;20025;-74
2022/01/20 10:23:38;;;;;;;477.10;254.82;;;8.10;99.90;;;;;;5055427;28;20025;-74
2022/01/20 10:26:24;;;;;;;454.40;229.80;;;8.20;99.90;;;;;;5055288;28;20032;-73
2022/01/20 10:29:04;;;;;;;352.13;179.48;;;8.00;99.90;;;;;;5055204;28;20025;-73
2022/01/20 10:31:54;;;;;;;338.02;166.90;;;7.80;99.90;;;;;;5055130;28;20559;-73
2022/01/20 10:34:30;;;;;;;353.08;186.23;;;7.60;99.90;;;;;;5055212;28;20028;-73
2022/01/20 10:37:02;;;;;;;337.88;183.60;;;7.50;99.90;;;;;;5054860;28;20483;-73
2022/01/20 10:39:45;;;;;;;319.83;174.43;;;7.60;99.90;;;;;;5055239;28;20060;-73
2022/01/20 10:42:14;;;;;;;341.17;188.88;;;7.70;99.90;;;;;;5054915;28;20100;-73
2022/01/20 10:44:44;;;;;;;348.85;193.25;;;7.60;99.90;;;;;;5054879;28;20033;-73
2022/01/20 10:47:16;;;;;;;384.15;212.45;;;7.50;99.90;;;;;;5054887;28;20039;-73
2022/01/20 10:49:42;;;;;;;;;;;7.50;99.90;;;;;;5054917;28;20128;-72
2022/01/20 10:52:11;;;;;;;373.33;200.65;;;7.60;99.90;;;;;;5054809;28;19950;-73
2022/01/20 10:54:46;;;;;;;387.30;216.38;;;7.60;99.90;;;;;;5054566;28;20040;-73
2022/01/20 10:57:15;;;;;;;396.98;219.57;;;7.60;99.90;;;;;;5054583;28;20025;-73
2022/01/20 10:59:48;;;;;;;376.85;210.88;;;7.70;99.90;;;;;;5054292;28;20427;-73
2022/01/20 11:02:21;;;;;;;379.63;214.13;;;7.70;99.90;;;;;;5054410;28;20441;-72
2022/01/20 11:04:48;;;;;;;396.33;227.27;;;7.70;99.90;;;;;;5054129;28;20067;-73
2022/01/20 11:07:14;;;;;;;420.85;238.48;;;7.70;99.90;;;;;;5054493;28;20025;-73
2022/01/20 11:09:44;;;;;;;405.90;225.90;;;7.80;99.90;;;;;;5054514;28;20029;-72
2022/01/20 11:12:12;;;;;;;430.40;237.25;;;7.70;99.90;;;;;;5054233;28;20029;-72
2022/01/20 11:14:39;;;;;;;420.65;228.55;;;7.70;99.90;;;;;;5054273;28;20112;-72
2022/01/20 11:17:05;;;;;;;415.98;223.48;;;7.60;99.90;;;;;;5054227;28;20021;-72
2022/01/20 11:19:36;;;;;;;394.08;217.13;;;7.50;99.90;;;;;;5054303;28;20100;-72
2022/01/20 11:22:08;;;;;;;373.73;198.90;;;7.40;99.90;;;;;;5053228;28;20151;-72
2022/01/20 11:24:34;;;;;;;;;;;7.30;99.90;;;;;;5054460;28;20093;-72
2022/01/20 11:27:02;;;;;;;278.85;138.75;;;7.20;99.90;;;;;;5054161;28;19905;-72
2022/01/20 11:29:49;;;;;;;298.83;142.82;;;7.00;99.90;;;;;;5054063;28;20025;-72
2022/01/20 11:32:16;;;;;;;304.10;146.35;;;6.90;99.90;;;;;;5053418;28;20145;-72
2022/01/20 11:34:54;;;;;;;260.58;125.75;;;6.80;99.90;;;;;;5053561;28;20031;-73
2022/01/20 11:37:23;;;;;;;269.02;132.13;;;6.60;99.90;;;;;;5053843;28;20025;-73
2022/01/20 11:40:06;;;;;;;221.43;101.93;;;6.50;99.90;;;;;;5053902;28;20427;-73
2022/01/20 11:42:32;;;;;;;160.02;81.65;;;6.30;99.90;;;;;;5053920;28;20032;-72
2022/01/20 11:44:58;;;;;;;142.73;72.97;;;6.20;99.90;;;;;;5053957;28;20025;-72
2022/01/20 11:47:32;;;;;;;160.05;78.40;;;6.10;99.90;;;;;;5053450;28;20025;-72
2022/01/20 11:49:58;;;;;;;217.32;99.18;;;6.10;99.90;;;;;;5053898;28;20025;-72
2022/01/20 11:52:25;;;;;;;201.27;86.68;;;6.00;99.90;;;;;;5053286;28;20136;-72
2022/01/20 11:54:51;;;;;;;176.35;83.03;;;6.00;99.90;;;;;;5053741;28;20055;-72
2022/01/20 11:57:20;;;;;;;165.10;75.88;;;5.90;99.90;;;;;;5053915;28;20029;-72
2022/01/20 11:59:59;;;;;;;233.65;109.03;;;5.90;99.90;;;;;;5053456;28;20100;-72
2022/01/20 12:02:33;;;;;;;244.65;114.55;;;5.80;99.90;;;;;;5053519;28;20033;-72
2022/01/20 12:05:15;;;;;;;193.57;92.47;;;5.80;99.90;;;;;;5053705;28;20032;-72
2022/01/20 12:07:40;;;;;;;187.37;91.20;;;5.80;99.90;;;;;;5053468;28;20029;-72
2022/01/20 12:10:10;;;;;;;214.60;99.22;;;5.80;99.90;;;;;;5053907;28;20528;-72
2022/01/20 12:12:38;;;;;;;206.02;96.60;;;5.80;99.90;;;;;;5053560;28;20053;-72
2022/01/20 12:15:14;;;;;;;195.80;95.57;;;5.80;99.90;;;;;;5053246;28;20120;-73
2022/01/20 12:17:47;;;;;;;150.00;75.43;;;5.70;99.90;;;;;;5053465;28;20112;-73
2022/01/20 12:20:13;;;;;;;126.35;64.55;;;5.70;99.90;;;;;;5053217;28;20032;-72
2022/01/20 12:22:44;;;;;;;128.60;65.22;;;5.70;99.90;;;;;;5053228;28;20376;-72
2022/01/20 12:25:17;;;;;;;145.63;74.15;;;5.70;99.90;;;;;;5053530;28;20091;-73
2022/01/20 12:27:44;;;;;;;154.13;73.85;;;5.70;99.90;;;;;;5053546;28;20025;-73
2022/01/20 12:30:23;;;;;;;182.80;83.55;;;5.70;99.90;;;;;;5053207;28;20029;-72
2022/01/20 12:33:00;;;;;;;181.75;88.30;;;5.70;99.90;;;;;;5053612;28;20017;-72
2022/01/20 12:35:36;;;;;;;247.98;110.47;;;5.70;99.90;;;;;;5056860;28;20426;-72
2022/01/20 12:38:12;;;;;;;287.20;128.55;;;5.70;99.90;;;;;;5057344;28;20375;-72
2022/01/20 12:40:38;;;;;;;344.20;174.98;;;5.70;99.90;;;;;;5057106;28;20463;-72
2022/01/20 12:43:04;;;;;;;398.70;217.95;;;5.80;99.90;;;;;;5056838;28;20112;-72
2022/01/20 12:48:15;;;;;;;367.77;196.93;;;5.70;99.90;;;;;;5057063;28;20068;-73
2022/01/20 12:51:10;;;;;;;438.27;234.95;;;5.70;99.90;;;;;;5056782;28;20036;-72
2022/01/20 12:53:37;;;;;;;454.00;248.25;;;5.60;99.90;;;;;;5034704;28;20076;-72
2022/01/20 12:56:08;;;;;;;293.55;153.02;;;5.60;99.90;;;;;;5034465;28;20033;-72
2022/01/20 12:58:51;;;;;;;313.63;167.20;;;5.50;99.90;;;;;;5034681;28;20048;-72
2022/01/20 13:01:18;;;;;;;381.83;212.50;;;5.50;99.90;;;;;;5034656;28;20072;-72
2022/01/20 13:03:45;;;;;;;314.55;188.80;;;5.40;99.90;;;;;;5034590;28;20041;-72
2022/01/20 13:06:22;;;;;;;303.23;175.30;;;5.40;99.90;;;;;;5034468;28;20033;-72
2022/01/20 13:09:19;;;;;;;238.40;125.28;;;5.40;99.90;;;;;;5034623;28;20021;-72
2022/01/20 13:12:02;;;;;;;185.60;98.40;;;5.40;99.90;;;;;;4975728;28;20042;-72
2022/01/20 13:14:47;;;;;;;193.10;98.05;;;5.40;99.90;;;;;;4975391;28;20034;-72
2022/01/20 13:17:19;;;;;;;189.73;100.32;;;5.40;99.90;;;;;;4975642;28;20042;-72
2022/01/20 13:19:47;;;;;;;196.35;102.22;;;5.30;99.90;;;;;;4975534;28;20030;-72
2022/01/20 13:22:31;;;;;;;169.02;89.13;;;5.30;99.90;;;;;;4975506;28;20041;-73
2022/01/20 13:25:07;;;;;;;113.50;56.92;;;5.20;99.90;;;;;;4975298;28;20058;-73
2022/01/20 13:27:34;;;;;;;111.88;55.47;;;5.20;99.90;;;;;;4975221;28;20027;-73
2022/01/20 13:30:00;;;;;;;115.32;58.92;;;5.20;99.90;;;;;;4995282;28;20046;-73
2022/01/20 13:32:26;;;;;;;109.30;53.95;;;5.10;99.90;;;;;;4997550;28;20037;-73
2022/01/20 13:34:54;;;;;;;134.77;61.95;;;5.20;99.90;;;;;;5014071;28;20046;-73
2022/01/20 13:37:20;;;;;;;92.95;46.33;;;5.10;99.90;;;;;;5014023;28;20030;-73
2022/01/20 13:39:45;;;;;;;94.97;43.53;;;5.10;99.90;;;;;;5014235;28;20056;-73